KPRC

Ernest A Love Field Airport

Prescott, Arizona, USA
KPRC 132327Z 1400/1424 29006KT P6SM SKC FM140200 19006KT P6SM SKC
Issued Valid From Valid To
Dec-13 @ 23:27 UTC
(4 hours ago)
Dec-14 @ 00:00 UTC
(3 hours ago)
Dec-15 @ 00:00 UTC
(in 21 hours)
Expired Click to View Dec-14 @ 00:00 to Dec-14 @ 02:00
KPRC 132327Z 1400/1424 29006KT P6SM SKC
Wind Visibility Clouds
290° at 6 knots Greater than 6 miles
  • Clear skies
From Dec-14 @ 02:00 to Dec-15 @ 00:00
FM140200 19006KT P6SM SKC
Wind Visibility Clouds
190° at 6 knots Greater than 6 miles
  • Clear skies
KPRC 132327Z 1400/1424 29006KT P6SM SKC FM140200 19006KT P6SM SKC
Issued Dec-13 @ 23:27 UTC
(4 hours ago)
Valid From Dec-14 @ 00:00 UTC
(3 hours ago)
Valid To Dec-15 @ 00:00 UTC
(in 21 hours)
Dec-14 @ 00:00 - Dec-14 @ 02:00
Wind Visibility
290° at 6 knots Greater than 6 miles
Clouds
  • Clear skies
From Dec-14 @ 02:00 - Dec-15 @ 00:00
Wind Visibility
190° at 6 knots Greater than 6 miles
Clouds
  • Clear skies